sensor_id;sensor_type;location;lat;lon;timestamp;P1;durP1;ratioP1;P2;durP2;ratioP2
25199;SDS011;33094;48.782;9.162;2023-05-10T00:01:22;1.55;;;1.20;;
25199;SDS011;33094;48.782;9.162;2023-05-10T00:03:48;2.30;;;1.45;;
25199;SDS011;33094;48.782;9.162;2023-05-10T00:06:14;3.83;;;1.30;;
25199;SDS011;33094;48.782;9.162;2023-05-10T00:08:39;5.35;;;3.53;;
25199;SDS011;33094;48.782;9.162;2023-05-10T00:11:05;2.70;;;0.82;;
25199;SDS011;33094;48.782;9.162;2023-05-10T00:13:31;2.08;;;0.65;;
25199;SDS011;33094;48.782;9.162;2023-05-10T00:15:57;1.48;;;0.93;;
25199;SDS011;33094;48.782;9.162;2023-05-10T00:18:23;2.55;;;0.93;;
25199;SDS011;33094;48.782;9.162;2023-05-10T00:20:48;3.78;;;0.57;;
25199;SDS011;33094;48.782;9.162;2023-05-10T00:23:14;3.40;;;0.85;;
25199;SDS011;33094;48.782;9.162;2023-05-10T00:25:40;3.60;;;0.68;;
25199;SDS011;33094;48.782;9.162;2023-05-10T00:28:05;5.20;;;0.65;;
25199;SDS011;33094;48.782;9.162;2023-05-10T00:30:31;1.70;;;0.52;;
25199;SDS011;33094;48.782;9.162;2023-05-10T00:32:56;3.20;;;0.45;;
25199;SDS011;33094;48.782;9.162;2023-05-10T00:35:22;1.20;;;0.30;;
25199;SDS011;33094;48.782;9.162;2023-05-10T00:37:48;2.45;;;0.80;;
25199;SDS011;33094;48.782;9.162;2023-05-10T00:40:13;1.35;;;0.50;;
25199;SDS011;33094;48.782;9.162;2023-05-10T00:42:39;1.15;;;0.50;;
25199;SDS011;33094;48.782;9.162;2023-05-10T00:45:05;1.30;;;0.30;;
25199;SDS011;33094;48.782;9.162;2023-05-10T00:47:32;1.92;;;0.43;;
25199;SDS011;33094;48.782;9.162;2023-05-10T00:49:58;0.30;;;0.30;;
25199;SDS011;33094;48.782;9.162;2023-05-10T00:52:25;0.60;;;0.40;;
25199;SDS011;33094;48.782;9.162;2023-05-10T00:54:52;1.83;;;0.30;;
25199;SDS011;33094;48.782;9.162;2023-05-10T00:57:18;0.28;;;0.22;;
25199;SDS011;33094;48.782;9.162;2023-05-10T00:59:44;0.70;;;0.20;;
25199;SDS011;33094;48.782;9.162;2023-05-10T01:02:10;1.00;;;0.30;;
25199;SDS011;33094;48.782;9.162;2023-05-10T01:04:36;0.98;;;0.32;;
25199;SDS011;33094;48.782;9.162;2023-05-10T01:07:03;3.25;;;0.40;;
25199;SDS011;33094;48.782;9.162;2023-05-10T01:12:51;0.20;;;0.20;;
25199;SDS011;33094;48.782;9.162;2023-05-10T01:15:16;0.32;;;0.32;;
25199;SDS011;33094;48.782;9.162;2023-05-10T01:17:43;0.40;;;0.40;;
25199;SDS011;33094;48.782;9.162;2023-05-10T01:20:11;1.05;;;0.28;;
25199;SDS011;33094;48.782;9.162;2023-05-10T01:25:32;0.43;;;0.30;;
25199;SDS011;33094;48.782;9.162;2023-05-10T01:34:12;2.55;;;0.40;;
25199;SDS011;33094;48.782;9.162;2023-05-10T01:44:58;0.47;;;0.40;;
25199;SDS011;33094;48.782;9.162;2023-05-10T01:48:26;0.40;;;0.40;;
25199;SDS011;33094;48.782;9.162;2023-05-10T01:50:28;0.52;;;0.50;;
25199;SDS011;33094;48.782;9.162;2023-05-10T01:52:56;4.68;;;0.75;;
25199;SDS011;33094;48.782;9.162;2023-05-10T01:55:25;1.00;;;0.90;;
25199;SDS011;33094;48.782;9.162;2023-05-10T01:57:57;0.43;;;0.35;;
25199;SDS011;33094;48.782;9.162;2023-05-10T02:00:27;0.95;;;0.32;;
25199;SDS011;33094;48.782;9.162;2023-05-10T02:02:54;4.50;;;0.60;;
25199;SDS011;33094;48.782;9.162;2023-05-10T02:05:21;0.55;;;0.40;;
25199;SDS011;33094;48.782;9.162;2023-05-10T02:07:47;0.30;;;0.30;;
25199;SDS011;33094;48.782;9.162;2023-05-10T02:10:15;0.55;;;0.30;;
25199;SDS011;33094;48.782;9.162;2023-05-10T02:12:42;0.50;;;0.30;;
25199;SDS011;33094;48.782;9.162;2023-05-10T02:15:11;0.50;;;0.50;;
25199;SDS011;33094;48.782;9.162;2023-05-10T02:17:40;5.45;;;0.50;;
25199;SDS011;33094;48.782;9.162;2023-05-10T02:20:08;0.98;;;0.38;;
25199;SDS011;33094;48.782;9.162;2023-05-10T02:22:35;1.73;;;0.50;;
25199;SDS011;33094;48.782;9.162;2023-05-10T02:25:02;0.98;;;0.45;;
25199;SDS011;33094;48.782;9.162;2023-05-10T02:29:55;0.40;;;0.40;;
25199;SDS011;33094;48.782;9.162;2023-05-10T02:32:22;1.95;;;0.43;;
25199;SDS011;33094;48.782;9.162;2023-05-10T02:34:51;1.38;;;0.30;;
25199;SDS011;33094;48.782;9.162;2023-05-10T02:37:18;1.83;;;0.43;;
25199;SDS011;33094;48.782;9.162;2023-05-10T02:39:49;0.85;;;0.40;;
25199;SDS011;33094;48.782;9.162;2023-05-10T02:42:16;0.40;;;0.40;;
25199;SDS011;33094;48.782;9.162;2023-05-10T02:44:47;0.63;;;0.50;;
25199;SDS011;33094;48.782;9.162;2023-05-10T02:47:15;0.63;;;0.40;;
25199;SDS011;33094;48.782;9.162;2023-05-10T02:49:41;6.22;;;0.85;;
25199;SDS011;33094;48.782;9.162;2023-05-10T02:52:07;0.45;;;0.45;;
25199;SDS011;33094;48.782;9.162;2023-05-10T02:54:42;1.00;;;0.40;;
25199;SDS011;33094;48.782;9.162;2023-05-10T02:57:11;4.00;;;0.60;;
25199;SDS011;33094;48.782;9.162;2023-05-10T02:59:44;1.70;;;0.45;;
25199;SDS011;33094;48.782;9.162;2023-05-10T03:02:10;2.40;;;0.60;;
25199;SDS011;33094;48.782;9.162;2023-05-10T03:04:37;0.75;;;0.43;;
25199;SDS011;33094;48.782;9.162;2023-05-10T03:07:03;2.60;;;0.60;;
25199;SDS011;33094;48.782;9.162;2023-05-10T03:09:30;0.50;;;0.50;;
25199;SDS011;33094;48.782;9.162;2023-05-10T03:12:00;1.30;;;0.50;;
25199;SDS011;33094;48.782;9.162;2023-05-10T03:14:49;6.88;;;0.65;;
25199;SDS011;33094;48.782;9.162;2023-05-10T03:20:16;0.73;;;0.68;;
25199;SDS011;33094;48.782;9.162;2023-05-10T03:22:56;2.42;;;0.68;;
25199;SDS011;33094;48.782;9.162;2023-05-10T03:25:36;2.25;;;0.75;;
25199;SDS011;33094;48.782;9.162;2023-05-10T03:28:02;0.63;;;0.63;;
25199;SDS011;33094;48.782;9.162;2023-05-10T03:30:30;2.63;;;0.90;;
25199;SDS011;33094;48.782;9.162;2023-05-10T03:32:56;1.60;;;0.75;;
25199;SDS011;33094;48.782;9.162;2023-05-10T03:35:22;1.50;;;0.80;;
25199;SDS011;33094;48.782;9.162;2023-05-10T03:37:49;1.60;;;0.82;;
25199;SDS011;33094;48.782;9.162;2023-05-10T03:40:14;1.63;;;0.70;;
25199;SDS011;33094;48.782;9.162;2023-05-10T03:42:40;1.77;;;0.88;;
25199;SDS011;33094;48.782;9.162;2023-05-10T03:45:06;1.10;;;0.73;;
25199;SDS011;33094;48.782;9.162;2023-05-10T03:47:32;1.52;;;0.88;;
25199;SDS011;33094;48.782;9.162;2023-05-10T03:49:58;1.65;;;0.75;;
25199;SDS011;33094;48.782;9.162;2023-05-10T03:52:24;2.67;;;0.90;;
25199;SDS011;33094;48.782;9.162;2023-05-10T03:54:50;0.90;;;0.90;;
25199;SDS011;33094;48.782;9.162;2023-05-10T03:57:15;1.45;;;0.95;;
25199;SDS011;33094;48.782;9.162;2023-05-10T03:59:41;3.40;;;0.82;;
25199;SDS011;33094;48.782;9.162;2023-05-10T04:02:06;6.50;;;1.13;;
25199;SDS011;33094;48.782;9.162;2023-05-10T04:04:32;5.68;;;1.30;;
25199;SDS011;33094;48.782;9.162;2023-05-10T04:06:58;1.95;;;1.20;;
25199;SDS011;33094;48.782;9.162;2023-05-10T04:09:23;1.90;;;0.98;;
25199;SDS011;33094;48.782;9.162;2023-05-10T04:11:49;1.08;;;0.98;;
25199;SDS011;33094;48.782;9.162;2023-05-10T04:14:15;3.60;;;1.15;;
25199;SDS011;33094;48.782;9.162;2023-05-10T04:16:41;1.40;;;1.17;;
25199;SDS011;33094;48.782;9.162;2023-05-10T04:19:07;4.85;;;1.20;;
25199;SDS011;33094;48.782;9.162;2023-05-10T04:21:32;2.22;;;1.27;;
25199;SDS011;33094;48.782;9.162;2023-05-10T04:23:58;2.00;;;1.40;;
25199;SDS011;33094;48.782;9.162;2023-05-10T04:26:23;4.22;;;1.50;;
25199;SDS011;33094;48.782;9.162;2023-05-10T04:28:50;1.35;;;1.25;;
25199;SDS011;33094;48.782;9.162;2023-05-10T04:31:16;2.53;;;1.30;;
25199;SDS011;33094;48.782;9.162;2023-05-10T04:33:42;1.52;;;1.42;;
25199;SDS011;33094;48.782;9.162;2023-05-10T04:36:07;2.90;;;1.58;;
25199;SDS011;33094;48.782;9.162;2023-05-10T04:38:33;6.28;;;1.50;;
25199;SDS011;33094;48.782;9.162;2023-05-10T04:41:08;3.53;;;1.50;;
25199;SDS011;33094;48.782;9.162;2023-05-10T04:43:35;1.52;;;1.38;;
25199;SDS011;33094;48.782;9.162;2023-05-10T04:46:01;1.65;;;1.55;;
25199;SDS011;33094;48.782;9.162;2023-05-10T04:48:27;8.20;;;1.65;;
25199;SDS011;33094;48.782;9.162;2023-05-10T04:50:53;1.90;;;1.70;;
25199;SDS011;33094;48.782;9.162;2023-05-10T04:53:18;2.42;;;1.50;;
25199;SDS011;33094;48.782;9.162;2023-05-10T04:55:44;8.57;;;1.40;;
25199;SDS011;33094;48.782;9.162;2023-05-10T04:58:10;2.15;;;1.52;;
25199;SDS011;33094;48.782;9.162;2023-05-10T05:00:35;1.30;;;1.15;;
25199;SDS011;33094;48.782;9.162;2023-05-10T05:03:01;3.45;;;1.50;;
25199;SDS011;33094;48.782;9.162;2023-05-10T05:05:26;2.55;;;1.50;;
25199;SDS011;33094;48.782;9.162;2023-05-10T05:07:52;1.50;;;1.38;;
25199;SDS011;33094;48.782;9.162;2023-05-10T05:10:18;4.30;;;1.10;;
25199;SDS011;33094;48.782;9.162;2023-05-10T05:12:44;6.55;;;1.50;;
25199;SDS011;33094;48.782;9.162;2023-05-10T05:15:10;4.45;;;1.20;;
25199;SDS011;33094;48.782;9.162;2023-05-10T05:17:36;2.58;;;1.25;;
25199;SDS011;33094;48.782;9.162;2023-05-10T05:20:01;1.30;;;1.15;;
25199;SDS011;33094;48.782;9.162;2023-05-10T05:22:28;1.30;;;1.20;;
25199;SDS011;33094;48.782;9.162;2023-05-10T05:24:54;2.75;;;1.25;;
25199;SDS011;33094;48.782;9.162;2023-05-10T05:27:20;3.70;;;1.60;;
25199;SDS011;33094;48.782;9.162;2023-05-10T05:29:48;2.95;;;1.40;;
25199;SDS011;33094;48.782;9.162;2023-05-10T05:32:24;1.83;;;1.20;;
25199;SDS011;33094;48.782;9.162;2023-05-10T05:34:50;3.67;;;1.60;;
25199;SDS011;33094;48.782;9.162;2023-05-10T05:37:17;3.28;;;1.40;;
25199;SDS011;33094;48.782;9.162;2023-05-10T05:39:43;2.80;;;1.52;;
25199;SDS011;33094;48.782;9.162;2023-05-10T05:42:10;3.22;;;1.33;;
25199;SDS011;33094;48.782;9.162;2023-05-10T05:44:36;1.92;;;1.52;;
25199;SDS011;33094;48.782;9.162;2023-05-10T05:47:02;4.90;;;1.80;;
25199;SDS011;33094;48.782;9.162;2023-05-10T05:49:28;4.47;;;1.20;;
25199;SDS011;33094;48.782;9.162;2023-05-10T05:51:53;5.75;;;1.42;;
25199;SDS011;33094;48.782;9.162;2023-05-10T05:54:19;3.20;;;1.10;;
25199;SDS011;33094;48.782;9.162;2023-05-10T05:56:45;4.70;;;1.30;;
25199;SDS011;33094;48.782;9.162;2023-05-10T05:59:11;1.45;;;1.27;;
25199;SDS011;33094;48.782;9.162;2023-05-10T06:01:36;2.78;;;1.40;;
25199;SDS011;33094;48.782;9.162;2023-05-10T06:04:02;2.47;;;1.60;;
25199;SDS011;33094;48.782;9.162;2023-05-10T06:06:28;3.33;;;1.60;;
25199;SDS011;33094;48.782;9.162;2023-05-10T06:08:53;3.83;;;1.38;;
25199;SDS011;33094;48.782;9.162;2023-05-10T06:11:19;6.20;;;1.38;;
25199;SDS011;33094;48.782;9.162;2023-05-10T06:13:46;12.98;;;2.20;;
25199;SDS011;33094;48.782;9.162;2023-05-10T06:16:12;2.50;;;1.60;;
25199;SDS011;33094;48.782;9.162;2023-05-10T06:29:00;3.17;;;1.48;;
25199;SDS011;33094;48.782;9.162;2023-05-10T06:34:22;4.18;;;1.60;;
25199;SDS011;33094;48.782;9.162;2023-05-10T06:36:49;8.85;;;2.28;;
25199;SDS011;33094;48.782;9.162;2023-05-10T07:31:10;49.75;;;5.40;;
25199;SDS011;33094;48.782;9.162;2023-05-10T07:36:12;14.40;;;2.05;;
25199;SDS011;33094;48.782;9.162;2023-05-10T07:38:47;20.88;;;3.17;;
25199;SDS011;33094;48.782;9.162;2023-05-10T07:41:14;7.38;;;1.92;;
25199;SDS011;33094;48.782;9.162;2023-05-10T07:43:41;3.53;;;1.83;;
25199;SDS011;33094;48.782;9.162;2023-05-10T07:48:43;2.35;;;1.55;;
25199;SDS011;33094;48.782;9.162;2023-05-10T07:51:15;2.15;;;1.30;;
25199;SDS011;33094;48.782;9.162;2023-05-10T07:53:58;3.20;;;0.95;;
25199;SDS011;33094;48.782;9.162;2023-05-10T07:56:31;18.17;;;2.03;;
25199;SDS011;33094;48.782;9.162;2023-05-10T07:59:03;3.80;;;1.90;;
25199;SDS011;33094;48.782;9.162;2023-05-10T08:01:33;2.33;;;1.60;;
25199;SDS011;33094;48.782;9.162;2023-05-10T08:04:00;5.05;;;1.98;;
25199;SDS011;33094;48.782;9.162;2023-05-10T08:06:28;3.05;;;0.98;;
25199;SDS011;33094;48.782;9.162;2023-05-10T08:08:55;5.03;;;1.60;;
25199;SDS011;33094;48.782;9.162;2023-05-10T08:11:23;6.38;;;1.70;;
25199;SDS011;33094;48.782;9.162;2023-05-10T08:13:49;2.33;;;0.93;;
25199;SDS011;33094;48.782;9.162;2023-05-10T08:16:18;2.28;;;1.15;;
25199;SDS011;33094;48.782;9.162;2023-05-10T08:18:52;2.90;;;0.90;;
25199;SDS011;33094;48.782;9.162;2023-05-10T08:24:04;5.13;;;1.05;;
25199;SDS011;33094;48.782;9.162;2023-05-10T08:26:31;3.42;;;1.15;;
25199;SDS011;33094;48.782;9.162;2023-05-10T08:28:58;4.13;;;1.85;;
25199;SDS011;33094;48.782;9.162;2023-05-10T08:31:48;1.05;;;0.80;;
25199;SDS011;33094;48.782;9.162;2023-05-10T08:34:15;1.88;;;1.20;;
25199;SDS011;33094;48.782;9.162;2023-05-10T08:36:41;3.33;;;1.00;;
25199;SDS011;33094;48.782;9.162;2023-05-10T08:39:07;4.72;;;1.05;;
25199;SDS011;33094;48.782;9.162;2023-05-10T08:44:02;2.55;;;1.20;;
25199;SDS011;33094;48.782;9.162;2023-05-10T08:46:29;3.05;;;1.33;;
25199;SDS011;33094;48.782;9.162;2023-05-10T08:48:58;2.97;;;1.40;;
25199;SDS011;33094;48.782;9.162;2023-05-10T08:51:29;1.55;;;0.90;;
25199;SDS011;33094;48.782;9.162;2023-05-10T08:54:01;2.15;;;1.10;;
25199;SDS011;33094;48.782;9.162;2023-05-10T08:56:28;5.88;;;1.02;;
25199;SDS011;33094;48.782;9.162;2023-05-10T08:58:53;3.58;;;0.80;;
25199;SDS011;33094;48.782;9.162;2023-05-10T09:01:20;5.93;;;1.02;;
25199;SDS011;33094;48.782;9.162;2023-05-10T09:03:46;5.18;;;1.10;;
25199;SDS011;33094;48.782;9.162;2023-05-10T09:06:13;6.85;;;1.75;;
25199;SDS011;33094;48.782;9.162;2023-05-10T09:08:40;8.38;;;1.17;;
25199;SDS011;33094;48.782;9.162;2023-05-10T09:11:08;2.17;;;1.08;;
25199;SDS011;33094;48.782;9.162;2023-05-10T09:13:35;4.50;;;0.95;;
25199;SDS011;33094;48.782;9.162;2023-05-10T09:20:54;1.90;;;0.70;;
25199;SDS011;33094;48.782;9.162;2023-05-10T09:23:19;1.52;;;0.65;;
25199;SDS011;33094;48.782;9.162;2023-05-10T09:25:45;3.77;;;0.90;;
25199;SDS011;33094;48.782;9.162;2023-05-10T09:28:11;1.55;;;0.95;;
25199;SDS011;33094;48.782;9.162;2023-05-10T09:33:13;1.55;;;0.75;;
25199;SDS011;33094;48.782;9.162;2023-05-10T09:35:43;10.88;;;1.70;;
25199;SDS011;33094;48.782;9.162;2023-05-10T09:38:09;7.93;;;1.10;;
25199;SDS011;33094;48.782;9.162;2023-05-10T09:40:35;3.30;;;0.85;;
25199;SDS011;33094;48.782;9.162;2023-05-10T09:43:02;6.50;;;0.70;;
25199;SDS011;33094;48.782;9.162;2023-05-10T09:45:31;12.82;;;2.00;;
25199;SDS011;33094;48.782;9.162;2023-05-10T09:50:33;1.35;;;0.60;;
25199;SDS011;33094;48.782;9.162;2023-05-10T09:53:00;1.45;;;0.60;;
25199;SDS011;33094;48.782;9.162;2023-05-10T09:55:43;14.88;;;1.25;;
25199;SDS011;33094;48.782;9.162;2023-05-10T09:58:11;0.70;;;0.70;;
25199;SDS011;33094;48.782;9.162;2023-05-10T10:03:05;10.32;;;1.65;;
25199;SDS011;33094;48.782;9.162;2023-05-10T10:05:32;1.33;;;0.73;;
25199;SDS011;33094;48.782;9.162;2023-05-10T10:08:00;3.05;;;0.90;;
25199;SDS011;33094;48.782;9.162;2023-05-10T10:10:28;7.10;;;0.93;;
25199;SDS011;33094;48.782;9.162;2023-05-10T10:12:54;3.17;;;0.90;;
25199;SDS011;33094;48.782;9.162;2023-05-10T10:15:20;4.65;;;0.93;;
25199;SDS011;33094;48.782;9.162;2023-05-10T10:17:48;1.60;;;0.77;;
25199;SDS011;33094;48.782;9.162;2023-05-10T10:20:15;1.33;;;0.63;;
25199;SDS011;33094;48.782;9.162;2023-05-10T10:22:41;3.33;;;0.50;;
25199;SDS011;33094;48.782;9.162;2023-05-10T10:25:09;1.38;;;0.55;;
25199;SDS011;33094;48.782;9.162;2023-05-10T10:27:43;3.40;;;0.98;;
25199;SDS011;33094;48.782;9.162;2023-05-10T10:36:12;1.25;;;0.55;;
25199;SDS011;33094;48.782;9.162;2023-05-10T10:47:02;2.78;;;1.27;;
25199;SDS011;33094;48.782;9.162;2023-05-10T10:54:41;1.20;;;0.60;;
25199;SDS011;33094;48.782;9.162;2023-05-10T10:57:17;1.10;;;0.57;;
25199;SDS011;33094;48.782;9.162;2023-05-10T11:05:17;4.20;;;0.47;;
25199;SDS011;33094;48.782;9.162;2023-05-10T11:08:11;4.00;;;0.55;;
25199;SDS011;33094;48.782;9.162;2023-05-10T11:21:20;6.22;;;0.90;;
25199;SDS011;33094;48.782;9.162;2023-05-10T11:23:48;4.43;;;0.70;;
25199;SDS011;33094;48.782;9.162;2023-05-10T11:26:18;1.45;;;0.60;;
25199;SDS011;33094;48.782;9.162;2023-05-10T11:28:54;2.65;;;0.80;;
25199;SDS011;33094;48.782;9.162;2023-05-10T11:31:26;1.15;;;0.60;;
25199;SDS011;33094;48.782;9.162;2023-05-10T11:36:23;0.60;;;0.60;;
25199;SDS011;33094;48.782;9.162;2023-05-10T11:38:52;1.45;;;0.52;;
25199;SDS011;33094;48.782;9.162;2023-05-10T11:41:36;1.23;;;0.70;;
25199;SDS011;33094;48.782;9.162;2023-05-10T11:46:41;6.18;;;1.10;;
25199;SDS011;33094;48.782;9.162;2023-05-10T11:49:07;6.30;;;1.02;;
25199;SDS011;33094;48.782;9.162;2023-05-10T12:01:54;3.83;;;0.98;;
25199;SDS011;33094;48.782;9.162;2023-05-10T12:04:24;1.00;;;0.80;;
25199;SDS011;33094;48.782;9.162;2023-05-10T12:17:21;4.18;;;0.93;;
25199;SDS011;33094;48.782;9.162;2023-05-10T12:19:54;2.67;;;1.02;;
25199;SDS011;33094;48.782;9.162;2023-05-10T12:22:46;1.73;;;1.27;;
25199;SDS011;33094;48.782;9.162;2023-05-10T12:25:18;1.45;;;1.17;;
25199;SDS011;33094;48.782;9.162;2023-05-10T12:27:52;5.28;;;1.63;;
25199;SDS011;33094;48.782;9.162;2023-05-10T12:30:21;1.35;;;1.10;;
25199;SDS011;33094;48.782;9.162;2023-05-10T12:32:58;3.03;;;1.20;;
25199;SDS011;33094;48.782;9.162;2023-05-10T12:35:33;1.65;;;1.10;;
25199;SDS011;33094;48.782;9.162;2023-05-10T12:38:32;5.47;;;2.05;;
25199;SDS011;33094;48.782;9.162;2023-05-10T12:43:37;1.75;;;0.98;;
25199;SDS011;33094;48.782;9.162;2023-05-10T12:46:07;6.78;;;1.10;;
25199;SDS011;33094;48.782;9.162;2023-05-10T12:48:37;2.10;;;1.08;;
25199;SDS011;33094;48.782;9.162;2023-05-10T12:51:09;4.25;;;1.50;;
25199;SDS011;33094;48.782;9.162;2023-05-10T12:53:41;6.03;;;1.08;;
25199;SDS011;33094;48.782;9.162;2023-05-10T12:56:07;5.55;;;1.58;;
25199;SDS011;33094;48.782;9.162;2023-05-10T12:58:36;3.45;;;1.20;;
25199;SDS011;33094;48.782;9.162;2023-05-10T13:01:07;4.32;;;1.35;;
25199;SDS011;33094;48.782;9.162;2023-05-10T13:03:34;6.93;;;1.50;;
25199;SDS011;33094;48.782;9.162;2023-05-10T13:06:00;3.03;;;1.50;;
25199;SDS011;33094;48.782;9.162;2023-05-10T13:08:26;2.75;;;1.50;;
25199;SDS011;33094;48.782;9.162;2023-05-10T13:10:57;4.78;;;1.20;;
25199;SDS011;33094;48.782;9.162;2023-05-10T13:13:23;2.15;;;1.00;;
25199;SDS011;33094;48.782;9.162;2023-05-10T13:15:49;4.40;;;1.30;;
25199;SDS011;33094;48.782;9.162;2023-05-10T13:18:18;4.05;;;1.13;;
25199;SDS011;33094;48.782;9.162;2023-05-10T13:20:44;0.90;;;0.90;;
25199;SDS011;33094;48.782;9.162;2023-05-10T13:23:11;1.20;;;1.00;;
25199;SDS011;33094;48.782;9.162;2023-05-10T13:28:07;3.38;;;1.65;;
25199;SDS011;33094;48.782;9.162;2023-05-10T13:30:33;6.63;;;1.10;;
25199;SDS011;33094;48.782;9.162;2023-05-10T13:33:02;4.50;;;1.25;;
25199;SDS011;33094;48.782;9.162;2023-05-10T13:35:31;5.22;;;1.10;;
25199;SDS011;33094;48.782;9.162;2023-05-10T13:37:57;5.03;;;1.00;;
25199;SDS011;33094;48.782;9.162;2023-05-10T13:40:24;1.90;;;0.93;;
25199;SDS011;33094;48.782;9.162;2023-05-10T13:42:50;7.30;;;2.20;;
25199;SDS011;33094;48.782;9.162;2023-05-10T13:45:19;5.70;;;1.65;;
25199;SDS011;33094;48.782;9.162;2023-05-10T13:47:46;5.97;;;1.70;;
25199;SDS011;33094;48.782;9.162;2023-05-10T13:50:12;3.47;;;1.35;;
25199;SDS011;33094;48.782;9.162;2023-05-10T13:52:38;3.50;;;1.30;;
25199;SDS011;33094;48.782;9.162;2023-05-10T13:55:04;2.33;;;1.30;;
25199;SDS011;33094;48.782;9.162;2023-05-10T13:57:31;3.78;;;1.25;;
25199;SDS011;33094;48.782;9.162;2023-05-10T14:00:00;4.13;;;1.20;;
25199;SDS011;33094;48.782;9.162;2023-05-10T14:02:26;4.95;;;1.20;;
25199;SDS011;33094;48.782;9.162;2023-05-10T14:04:55;3.83;;;1.30;;
25199;SDS011;33094;48.782;9.162;2023-05-10T14:07:24;4.28;;;1.10;;
25199;SDS011;33094;48.782;9.162;2023-05-10T14:09:51;5.25;;;1.15;;
25199;SDS011;33094;48.782;9.162;2023-05-10T14:12:20;1.85;;;0.70;;
25199;SDS011;33094;48.782;9.162;2023-05-10T14:14:46;2.80;;;0.90;;
25199;SDS011;33094;48.782;9.162;2023-05-10T14:17:16;4.10;;;0.90;;
25199;SDS011;33094;48.782;9.162;2023-05-10T14:22:08;1.40;;;1.08;;
25199;SDS011;33094;48.782;9.162;2023-05-10T14:24:37;3.08;;;1.17;;
25199;SDS011;33094;48.782;9.162;2023-05-10T14:27:07;2.92;;;1.20;;
25199;SDS011;33094;48.782;9.162;2023-05-10T14:29:33;5.28;;;1.10;;
25199;SDS011;33094;48.782;9.162;2023-05-10T14:32:00;6.22;;;1.58;;
25199;SDS011;33094;48.782;9.162;2023-05-10T14:34:29;3.70;;;1.10;;
25199;SDS011;33094;48.782;9.162;2023-05-10T14:36:56;1.17;;;0.70;;
25199;SDS011;33094;48.782;9.162;2023-05-10T14:39:22;1.40;;;0.90;;
25199;SDS011;33094;48.782;9.162;2023-05-10T14:41:50;1.95;;;0.70;;
25199;SDS011;33094;48.782;9.162;2023-05-10T14:46:44;7.10;;;2.25;;
25199;SDS011;33094;48.782;9.162;2023-05-10T14:49:15;2.28;;;1.23;;
25199;SDS011;33094;48.782;9.162;2023-05-10T14:54:08;5.25;;;1.65;;
25199;SDS011;33094;48.782;9.162;2023-05-10T14:56:36;5.22;;;1.48;;
25199;SDS011;33094;48.782;9.162;2023-05-10T14:59:04;3.53;;;0.98;;
25199;SDS011;33094;48.782;9.162;2023-05-10T15:01:33;3.30;;;1.10;;
25199;SDS011;33094;48.782;9.162;2023-05-10T15:04:04;3.58;;;1.30;;
25199;SDS011;33094;48.782;9.162;2023-05-10T15:06:31;4.60;;;0.77;;
25199;SDS011;33094;48.782;9.162;2023-05-10T15:16:47;5.95;;;1.20;;
25199;SDS011;33094;48.782;9.162;2023-05-10T15:27:02;5.07;;;0.85;;
25199;SDS011;33094;48.782;9.162;2023-05-10T15:34:42;5.55;;;1.83;;
25199;SDS011;33094;48.782;9.162;2023-05-10T15:39:44;2.25;;;1.25;;
25199;SDS011;33094;48.782;9.162;2023-05-10T15:44:48;2.35;;;1.02;;
25199;SDS011;33094;48.782;9.162;2023-05-10T15:47:20;3.33;;;0.90;;
25199;SDS011;33094;48.782;9.162;2023-05-10T15:49:50;4.20;;;1.08;;
25199;SDS011;33094;48.782;9.162;2023-05-10T15:57:38;1.10;;;0.70;;
25199;SDS011;33094;48.782;9.162;2023-05-10T16:57:11;2.47;;;0.50;;
25199;SDS011;33094;48.782;9.162;2023-05-10T17:20:22;1.27;;;0.90;;
25199;SDS011;33094;48.782;9.162;2023-05-10T17:22:49;1.52;;;0.50;;
25199;SDS011;33094;48.782;9.162;2023-05-10T17:25:19;0.40;;;0.40;;
25199;SDS011;33094;48.782;9.162;2023-05-10T17:27:47;2.38;;;0.93;;
25199;SDS011;33094;48.782;9.162;2023-05-10T17:32:44;3.90;;;1.15;;
25199;SDS011;33094;48.782;9.162;2023-05-10T17:48:09;1.15;;;0.88;;
25199;SDS011;33094;48.782;9.162;2023-05-10T17:55:47;3.60;;;1.52;;
25199;SDS011;33094;48.782;9.162;2023-05-10T18:16:30;2.60;;;1.17;;
25199;SDS011;33094;48.782;9.162;2023-05-10T18:18:57;2.97;;;1.13;;
25199;SDS011;33094;48.782;9.162;2023-05-10T18:55:23;4.80;;;1.50;;
25199;SDS011;33094;48.782;9.162;2023-05-10T19:00:43;3.10;;;1.48;;
25199;SDS011;33094;48.782;9.162;2023-05-10T19:05:38;3.10;;;1.77;;
25199;SDS011;33094;48.782;9.162;2023-05-10T19:10:43;2.25;;;1.40;;
25199;SDS011;33094;48.782;9.162;2023-05-10T19:13:10;1.92;;;1.70;;
25199;SDS011;33094;48.782;9.162;2023-05-10T19:15:37;9.05;;;2.08;;
25199;SDS011;33094;48.782;9.162;2023-05-10T19:18:08;4.05;;;1.60;;
25199;SDS011;33094;48.782;9.162;2023-05-10T19:20:58;3.00;;;1.40;;
25199;SDS011;33094;48.782;9.162;2023-05-10T19:23:31;3.80;;;1.60;;
25199;SDS011;33094;48.782;9.162;2023-05-10T19:28:34;3.13;;;1.67;;
25199;SDS011;33094;48.782;9.162;2023-05-10T19:31:03;4.72;;;1.80;;
25199;SDS011;33094;48.782;9.162;2023-05-10T19:33:35;6.72;;;1.77;;
25199;SDS011;33094;48.782;9.162;2023-05-10T19:36:03;15.85;;;2.97;;
25199;SDS011;33094;48.782;9.162;2023-05-10T19:38:31;10.63;;;2.65;;
25199;SDS011;33094;48.782;9.162;2023-05-10T19:41:02;3.08;;;1.60;;
25199;SDS011;33094;48.782;9.162;2023-05-10T19:48:46;3.08;;;2.08;;
25199;SDS011;33094;48.782;9.162;2023-05-10T19:51:15;3.92;;;1.65;;
25199;SDS011;33094;48.782;9.162;2023-05-10T19:53:42;1.80;;;1.55;;
25199;SDS011;33094;48.782;9.162;2023-05-10T19:56:10;2.30;;;1.90;;
25199;SDS011;33094;48.782;9.162;2023-05-10T20:01:04;7.18;;;1.95;;
25199;SDS011;33094;48.782;9.162;2023-05-10T20:03:32;4.47;;;1.88;;
25199;SDS011;33094;48.782;9.162;2023-05-10T20:08:37;3.08;;;1.75;;
25199;SDS011;33094;48.782;9.162;2023-05-10T20:18:50;2.95;;;1.60;;
25199;SDS011;33094;48.782;9.162;2023-05-10T20:44:37;2.38;;;1.60;;
25199;SDS011;33094;48.782;9.162;2023-05-10T20:54:52;2.95;;;1.42;;
25199;SDS011;33094;48.782;9.162;2023-05-10T20:57:21;6.60;;;1.80;;
25199;SDS011;33094;48.782;9.162;2023-05-10T21:05:00;2.47;;;1.48;;
25199;SDS011;33094;48.782;9.162;2023-05-10T21:07:28;8.05;;;1.20;;
25199;SDS011;33094;48.782;9.162;2023-05-10T21:12:33;1.90;;;1.23;;
25199;SDS011;33094;48.782;9.162;2023-05-10T21:20:16;5.35;;;1.38;;
25199;SDS011;33094;48.782;9.162;2023-05-10T21:22:45;2.10;;;1.63;;
25199;SDS011;33094;48.782;9.162;2023-05-10T21:25:15;6.20;;;2.50;;
25199;SDS011;33094;48.782;9.162;2023-05-10T22:01:23;5.85;;;1.85;;
25199;SDS011;33094;48.782;9.162;2023-05-10T22:03:49;4.50;;;1.63;;
25199;SDS011;33094;48.782;9.162;2023-05-10T22:16:37;4.20;;;1.33;;
25199;SDS011;33094;48.782;9.162;2023-05-10T22:19:05;4.15;;;1.13;;
25199;SDS011;33094;48.782;9.162;2023-05-10T22:29:18;1.67;;;1.30;;
25199;SDS011;33094;48.782;9.162;2023-05-10T22:49:53;3.08;;;1.38;;
25199;SDS011;33094;48.782;9.162;2023-05-10T22:52:33;2.03;;;1.60;;
25199;SDS011;33094;48.782;9.162;2023-05-10T22:57:38;7.97;;;1.60;;
25199;SDS011;33094;48.782;9.162;2023-05-10T23:28:49;4.68;;;1.58;;
25199;SDS011;33094;48.782;9.162;2023-05-10T23:31:16;3.72;;;1.40;;
25199;SDS011;33094;48.782;9.162;2023-05-10T23:51:51;5.03;;;2.05;;
25199;SDS011;33094;48.782;9.162;2023-05-10T23:54:18;9.77;;;2.05;;
